createdAt,value
2022-08-05T00:01:27.822Z,99665.56
2022-08-05T00:06:35.977Z,99665.19
2022-08-05T00:11:49.049Z,99657.31
2022-08-05T00:16:54.484Z,99652.09
2022-08-05T00:21:57.809Z,99656.84
2022-08-05T00:27:01.793Z,99647.31
2022-08-05T00:32:15.003Z,99652.53
2022-08-05T00:37:18.963Z,99646.41
2022-08-05T00:42:32.641Z,99644.50
2022-08-05T00:47:57.229Z,99649.38
2022-08-05T00:53:01.518Z,99653.31
2022-08-05T00:58:05.466Z,99639.72
2022-08-05T01:03:22.558Z,99649.06
2022-08-05T01:08:41.291Z,99652.47
2022-08-05T01:13:59.175Z,99643.66
2022-08-05T01:19:14.335Z,99653.34
2022-08-05T01:24:35.082Z,99651.69
2022-08-05T01:29:46.397Z,99657.81
2022-08-05T01:34:54.726Z,99650.09
2022-08-05T01:39:59.909Z,99648.47
2022-08-05T01:45:08.251Z,99656.41
2022-08-05T01:50:15.972Z,99641.66
2022-08-05T01:55:23.702Z,99652.06
2022-08-05T02:00:31.076Z,99651.06
2022-08-05T02:05:37.928Z,99653.69
2022-08-05T02:10:51.521Z,99655.31
2022-08-05T02:16:04.924Z,99657.81
2022-08-05T02:21:14.950Z,99671.81
2022-08-05T02:26:26.505Z,99663.31
2022-08-05T02:31:34.981Z,99661.09
2022-08-05T02:36:43.782Z,99670.97
2022-08-05T02:42:01.294Z,99673.81
2022-08-05T02:47:09.260Z,99676.47
2022-08-05T02:52:30.132Z,99675.72
2022-08-05T02:58:11.119Z,99678.34
2022-08-05T03:03:00.081Z,99691.38
2022-08-05T03:08:08.769Z,99702.81
2022-08-05T03:13:17.149Z,99687.53
2022-08-05T03:18:30.087Z,99690.31
2022-08-05T03:23:35.155Z,99683.91
2022-08-05T03:28:41.928Z,99702.59
2022-08-05T03:33:53.038Z,99697.88
2022-08-05T03:38:56.752Z,99692.31
2022-08-05T03:44:10.196Z,99702.19
2022-08-05T03:49:16.857Z,99696.84
2022-08-05T03:55:06.865Z,99711.13
2022-08-05T03:59:59.489Z,99711.94
2022-08-05T04:05:10.145Z,99718.13
2022-08-05T04:10:14.099Z,99721.25
2022-08-05T04:15:21.124Z,99725.94
2022-08-05T04:20:29.542Z,99722.94
2022-08-05T04:25:57.096Z,99721.94
2022-08-05T04:30:58.704Z,99721.31
2022-08-05T04:36:46.241Z,99725.56
2022-08-05T04:41:37.744Z,99724.00
2022-08-05T04:46:42.219Z,99729.88
2022-08-05T04:52:00.215Z,99726.47
2022-08-05T04:57:04.029Z,99736.94
2022-08-05T05:02:41.368Z,99741.22
2022-08-05T05:07:35.553Z,99739.06
2022-08-05T05:12:39.325Z,99740.56
2022-08-05T05:17:56.658Z,99730.44
2022-08-05T05:23:08.423Z,99738.31
2022-08-05T05:28:24.877Z,99741.69
2022-08-05T05:33:28.289Z,99740.97
2022-08-05T05:38:48.109Z,99740.88
2022-08-05T05:43:58.579Z,99744.13
2022-08-05T05:49:06.461Z,99742.00
2022-08-05T05:54:49.968Z,99744.00
2022-08-05T05:59:50.502Z,99748.72
2022-08-05T06:04:56.192Z,99748.69
2022-08-05T06:10:10.860Z,99740.63
2022-08-05T06:15:24.204Z,99749.97
2022-08-05T06:20:28.045Z,99755.31
2022-08-05T06:26:13.208Z,99755.63
2022-08-05T06:30:57.169Z,99765.94
2022-08-05T06:36:07.208Z,99762.88
2022-08-05T06:41:14.805Z,99773.72
2022-08-05T06:46:18.286Z,99774.22
2022-08-05T06:51:29.422Z,99767.13
2022-08-05T06:56:35.279Z,99773.19
2022-08-05T07:01:40.545Z,99773.41
2022-08-05T07:06:45.592Z,99768.13
2022-08-05T07:11:55.944Z,99778.28
2022-08-05T07:18:01.761Z,99787.63
2022-08-05T07:22:30.239Z,99783.53
2022-08-05T07:27:57.742Z,99785.09
2022-08-05T07:32:58.602Z,99793.91
2022-08-05T07:38:01.999Z,99788.47
2022-08-05T07:43:14.451Z,99780.16
2022-08-05T07:49:00.468Z,99788.66
2022-08-05T07:53:50.585Z,99769.56
2022-08-05T07:58:58.912Z,99754.63
2022-08-05T08:04:03.183Z,99769.25
2022-08-05T08:09:07.632Z,99767.81
2022-08-05T08:14:12.495Z,99760.59
2022-08-05T08:20:21.020Z,99755.91
2022-08-05T08:24:51.928Z,99748.91
2022-08-05T08:30:05.571Z,99755.53
2022-08-05T08:35:21.049Z,99751.78
2022-08-05T08:40:31.197Z,99744.69
2022-08-05T08:45:39.174Z,99739.09
2022-08-05T08:51:03.251Z,99735.25
2022-08-05T08:56:08.858Z,99729.97
2022-08-05T09:01:15.855Z,99728.63
2022-08-05T09:06:21.321Z,99723.72
2022-08-05T09:11:53.472Z,99732.75
2022-08-05T09:16:53.003Z,99724.59
2022-08-05T09:22:22.912Z,99728.88
2022-08-05T09:28:03.962Z,99720.50
2022-08-05T09:33:04.745Z,99715.03
2022-08-05T09:38:16.252Z,99713.59
2022-08-05T09:43:41.139Z,99696.25
2022-08-05T09:48:55.434Z,99705.47
2022-08-05T09:54:11.527Z,99711.22
2022-08-05T09:59:17.509Z,99698.91
2022-08-05T10:04:29.203Z,99706.13
2022-08-05T10:09:45.148Z,99696.91
2022-08-05T10:14:48.938Z,99686.19
2022-08-05T10:20:04.076Z,99701.91
2022-08-05T10:25:14.378Z,99698.84
2022-08-05T10:31:20.185Z,99700.31
2022-08-05T10:35:44.076Z,99691.47
2022-08-05T10:40:58.430Z,99692.28
2022-08-05T10:46:06.795Z,99670.09
2022-08-05T10:51:22.327Z,99691.69
2022-08-05T10:56:28.702Z,99688.41
2022-08-05T11:01:55.362Z,99699.34
2022-08-05T11:07:09.288Z,99693.78
2022-08-05T11:12:50.379Z,99685.81
2022-08-05T11:18:11.715Z,99678.22
2022-08-05T11:23:33.615Z,99670.28
2022-08-05T11:29:37.315Z,99674.25
2022-08-05T11:34:59.584Z,99681.31
2022-08-05T11:40:04.731Z,99669.66
2022-08-05T11:45:14.248Z,99670.38
2022-08-05T11:50:27.457Z,99662.56
2022-08-05T11:55:36.512Z,99661.66
2022-08-05T12:00:44.324Z,99648.44
2022-08-05T12:05:50.493Z,99648.72
2022-08-05T12:10:58.203Z,99654.13
2022-08-05T12:16:01.603Z,99665.66
2022-08-05T12:21:12.706Z,99643.16
2022-08-05T12:26:17.608Z,99653.25
2022-08-05T12:31:28.039Z,99645.31
2022-08-05T12:36:44.859Z,99645.00
2022-08-05T12:41:51.314Z,99639.53
2022-08-05T12:47:01.810Z,99637.22
2022-08-05T12:52:12.037Z,99643.78
2022-08-05T12:57:24.002Z,99642.06
2022-08-05T13:02:30.454Z,99630.31
2022-08-05T13:07:59.199Z,99622.81
2022-08-05T13:12:58.922Z,99619.13
2022-08-05T13:18:02.486Z,99614.00
2022-08-05T13:23:07.318Z,99614.09
2022-08-05T13:28:13.048Z,99627.69
2022-08-05T13:34:20.218Z,99627.59
2022-08-05T13:38:42.773Z,99613.72
2022-08-05T13:43:54.726Z,99614.03
2022-08-05T13:49:00.897Z,99611.50
2022-08-05T13:54:12.935Z,99611.06
2022-08-05T13:59:20.277Z,99604.34
2022-08-05T14:04:41.597Z,99604.09
2022-08-05T14:09:46.510Z,99602.66
2022-08-05T14:14:52.088Z,99597.97
2022-08-05T14:20:01.030Z,99600.59
2022-08-05T14:25:21.717Z,99595.91
2022-08-05T14:30:28.390Z,99588.63
2022-08-05T14:35:37.280Z,99586.69
2022-08-05T14:40:53.814Z,99576.97
2022-08-05T14:45:58.545Z,99568.72
2022-08-05T14:51:01.875Z,99574.19
2022-08-05T14:56:07.041Z,99573.13
2022-08-05T15:01:15.518Z,99566.78
2022-08-05T15:06:20.318Z,99573.97
2022-08-05T15:11:52.478Z,99565.91
2022-08-05T15:16:56.785Z,99566.97
2022-08-05T15:22:01.457Z,99561.06
2022-08-05T15:27:09.064Z,99561.38
2022-08-05T15:32:14.236Z,99568.25
2022-08-05T15:37:22.202Z,99560.56
2022-08-05T15:42:55.266Z,99560.41
2022-08-05T15:48:04.523Z,99562.56
2022-08-05T15:53:09.208Z,99561.56
2022-08-05T15:58:16.789Z,99558.25
2022-08-05T16:03:21.637Z,99561.72
2022-08-05T16:08:25.083Z,99558.09
2022-08-05T16:13:35.103Z,99559.47
2022-08-05T16:18:51.700Z,99558.66
2022-08-05T16:23:58.013Z,99566.72
2022-08-05T16:29:02.467Z,99569.44
2022-08-05T16:34:07.954Z,99568.56
2022-08-05T16:39:13.835Z,99570.09
2022-08-05T16:44:18.713Z,99567.50
2022-08-05T16:49:26.698Z,99575.72
2022-08-05T16:54:33.037Z,99590.84
2022-08-05T17:00:00.311Z,99591.66
2022-08-05T17:05:01.400Z,99592.66
2022-08-05T17:10:07.118Z,99602.50
2022-08-05T17:15:15.698Z,99606.38
2022-08-05T17:20:24.963Z,99610.53
2022-08-05T17:25:40.198Z,99602.03
2022-08-05T17:30:52.059Z,99606.44
2022-08-05T17:36:07.464Z,99604.75
2022-08-05T17:42:16.619Z,99605.88
2022-08-05T17:46:36.477Z,99593.91
2022-08-05T17:51:41.452Z,99605.75
2022-08-05T17:56:45.144Z,99611.94
2022-08-05T18:01:52.551Z,99609.41
2022-08-05T18:07:01.106Z,99618.44
2022-08-05T18:12:05.072Z,99626.72
2022-08-05T18:17:58.926Z,99628.53
2022-08-05T18:22:36.208Z,99630.00
2022-08-05T18:27:51.968Z,99640.72
2022-08-05T18:33:00.418Z,99642.72
2022-08-05T18:38:05.802Z,99611.16
2022-08-05T18:43:16.351Z,99643.16
2022-08-05T18:48:30.736Z,99639.88
2022-08-05T18:53:45.789Z,99634.31
2022-08-05T18:58:54.960Z,99634.47
2022-08-05T19:04:05.365Z,99629.13
2022-08-05T19:09:10.329Z,99634.97
2022-08-05T19:14:52.132Z,99640.69
2022-08-05T19:19:37.095Z,99636.97
2022-08-05T19:24:56.323Z,99634.97
2022-08-05T19:30:02.850Z,99638.56
2022-08-05T19:35:08.334Z,99632.13
2022-08-05T19:40:15.047Z,99642.19
2022-08-05T19:45:18.649Z,99645.75
2022-08-05T19:50:21.986Z,99643.63
2022-08-05T19:56:14.733Z,99644.03
2022-08-05T20:00:53.380Z,99623.97
2022-08-05T20:05:56.806Z,99633.09
2022-08-05T20:11:03.132Z,99629.19
2022-08-05T20:16:06.915Z,99634.16
2022-08-05T20:21:10.826Z,99631.81
2022-08-05T20:26:17.264Z,99637.50
2022-08-05T20:31:22.849Z,99635.50
2022-08-05T20:36:31.828Z,99621.06
2022-08-05T20:41:44.175Z,99629.03
2022-08-05T20:46:48.768Z,99622.00
2022-08-05T20:51:53.441Z,99630.84
2022-08-05T20:56:59.085Z,99633.09
2022-08-05T21:02:02.419Z,99626.59
2022-08-05T21:07:08.955Z,99628.63
2022-08-05T21:12:13.808Z,99614.78
2022-08-05T21:17:20.581Z,99624.13
2022-08-05T21:22:25.395Z,99615.59
2022-08-05T21:27:38.601Z,99618.34
2022-08-05T21:32:42.355Z,99621.69
2022-08-05T21:37:53.174Z,99621.22
2022-08-05T21:42:59.256Z,99606.81
2022-08-05T21:48:06.417Z,99592.50
2022-08-05T21:53:16.694Z,99603.91
2022-08-05T21:58:24.990Z,99603.25
2022-08-05T22:03:52.018Z,99615.81
2022-08-05T22:08:56.695Z,99612.69
2022-08-05T22:14:34.386Z,99612.09
2022-08-05T22:19:57.414Z,99615.16
2022-08-05T22:25:08.760Z,99620.63
2022-08-05T22:30:35.359Z,99627.69
2022-08-05T22:35:49.221Z,99624.38
2022-08-05T22:40:54.858Z,99626.53
2022-08-05T22:46:00.098Z,99623.97
2022-08-05T22:51:07.050Z,99626.75
2022-08-05T22:56:10.678Z,99627.00
2022-08-05T23:01:17.937Z,99628.91
2022-08-05T23:06:26.374Z,99630.81
2022-08-05T23:11:30.209Z,99624.84
2022-08-05T23:16:52.932Z,99627.63
2022-08-05T23:21:56.210Z,99631.47
2022-08-05T23:26:59.693Z,99618.41
2022-08-05T23:32:06.054Z,99622.66
2022-08-05T23:37:09.405Z,99624.53
2022-08-05T23:42:14.812Z,99633.25
2022-08-05T23:47:28.377Z,99626.38
2022-08-05T23:52:49.745Z,99627.59
2022-08-05T23:57:54.055Z,99625.91
